Time;durP1;ratioP1;P1;durP2;ratioP2;P2;SDS_P1;SDS_P2;PMS_P1;PMS_P2;Temp;Humidity;BMP_temperature;BMP_pressure;BME280_temperature;BME280_humidity;BME280_pressure;Samples;Min_cycle;Max_cycle;Signal;HPM_P1;HPM_P2
2022/10/07 00:00:30;;;;;;;6.5;1.3;;;;;;;;;;;;;-75
2022/10/07 00:02:07;;;;;;;;;;;;;;;10.93;68.27246;102689.4;;;;-74
2022/10/07 00:07:07;;;;;;;;;;;;;;;10.9;68.34668;102685.3;;;;-74
2022/10/07 00:12:09;;;;;;;;;;;;;;;10.87;68.94043;102683.8;;;;-70
2022/10/07 00:17:07;;;;;;;;;;;;;;;10.87;68.8291;102685.5;;;;-70
2022/10/07 00:22:06;;;;;;;;;;;;;;;10.87;68.88477;102678;;;;-71
2022/10/07 00:27:07;;;;;;;;;;;;;;;10.79;68.69434;102675.1;;;;-71
2022/10/07 00:30:26;;;;;;;6.2;1.4;;;;;;;;;;;;;-71
2022/10/07 00:32:06;;;;;;;;;;;;;;;10.76;68.90137;102665.7;;;;-71
2022/10/07 00:37:06;;;;;;;;;;;;;;;10.76;68.50293;102675.2;;;;-70
2022/10/07 00:42:07;;;;;;;;;;;;;;;10.72;69.05273;102664.8;;;;-75
2022/10/07 00:47:08;;;;;;;;;;;;;;;10.73;68.80957;102656.3;;;;-75
2022/10/07 00:52:07;;;;;;;;;;;;;;;10.68;69.87793;102656.5;;;;-74
2022/10/07 00:57:08;;;;;;;;;;;;;;;10.67;70.33203;102652.2;;;;-75
2022/10/07 01:00:33;;;;;;;5.5;1.3;;;;;;;;;;;;;-75
2022/10/07 01:02:09;;;;;;;;;;;;;;;10.68;69.35645;102650.7;;;;-74
2022/10/07 01:07:06;;;;;;;;;;;;;;;10.65;69.58496;102639.4;;;;-75
2022/10/07 01:12:10;;;;;;;;;;;;;;;10.65;69.99512;102631.2;;;;-73
2022/10/07 01:17:10;;;;;;;;;;;;;;;10.64;70.23828;102630.1;;;;-74
2022/10/07 01:22:16;;;;;;;;;;;;;;;10.62;70.52441;102619.6;;;;-75
2022/10/07 01:27:11;;;;;;;;;;;;;;;10.64;70.52734;102614.2;;;;-75
2022/10/07 01:30:40;;;;;;;7;1.4;;;;;;;;;;;;;-76
2022/10/07 01:32:17;;;;;;;;;;;;;;;10.64;71.25781;102606.1;;;;-74
2022/10/07 01:37:16;;;;;;;;;;;;;;;10.63;71.19141;102598.7;;;;-73
2022/10/07 01:42:17;;;;;;;;;;;;;;;10.66;70.75;102591.1;;;;-76
2022/10/07 01:47:07;;;;;;;;;;;;;;;10.64;71.22656;102578.8;;;;-74
2022/10/07 01:52:17;;;;;;;;;;;;;;;10.65;71.15039;102571.4;;;;-75
2022/10/07 01:57:19;;;;;;;;;;;;;;;10.63;71.29102;102554.3;;;;-75
2022/10/07 02:00:30;;;;;;;7.5;1.6;;;;;;;;;;;;;-74
2022/10/07 02:02:11;;;;;;;;;;;;;;;10.63;71.95703;102551.2;;;;-76
2022/10/07 02:07:11;;;;;;;;;;;;;;;10.62;71.30078;102546.6;;;;-74
2022/10/07 02:12:12;;;;;;;;;;;;;;;10.63;71.36914;102533.3;;;;-75
2022/10/07 02:17:10;;;;;;;;;;;;;;;10.6;71.37402;102518.6;;;;-74
2022/10/07 02:22:07;;;;;;;;;;;;;;;10.59;71.68359;102514;;;;-73
2022/10/07 02:27:10;;;;;;;;;;;;;;;10.57;72.06836;102502.7;;;;-73
2022/10/07 02:30:29;;;;;;;6.7;1.4;;;;;;;;;;;;;-75
2022/10/07 02:32:12;;;;;;;;;;;;;;;10.58;72.00293;102506.6;;;;-73
2022/10/07 02:37:09;;;;;;;;;;;;;;;10.6;72.2832;102497.4;;;;-74
2022/10/07 02:42:12;;;;;;;;;;;;;;;10.57;71.94629;102498.6;;;;-75
2022/10/07 02:47:10;;;;;;;;;;;;;;;10.56;71.5459;102492.9;;;;-75
2022/10/07 02:52:09;;;;;;;;;;;;;;;10.57;72.53418;102482.5;;;;-74
2022/10/07 02:57:08;;;;;;;;;;;;;;;10.56;72.69922;102477.7;;;;-74
2022/10/07 03:00:31;;;;;;;6.6;1.4;;;;;;;;;;;;;-76
2022/10/07 03:02:16;;;;;;;;;;;;;;;10.56;72.67578;102478.1;;;;-74
2022/10/07 03:07:07;;;;;;;;;;;;;;;10.56;73.06348;102474.1;;;;-75
2022/10/07 03:12:07;;;;;;;;;;;;;;;10.56;72.66602;102467.1;;;;-74
2022/10/07 03:17:06;;;;;;;;;;;;;;;10.57;72.49121;102458.1;;;;-74
2022/10/07 03:22:10;;;;;;;;;;;;;;;10.54;72.64063;102454.6;;;;-75
2022/10/07 03:27:08;;;;;;;;;;;;;;;10.54;72.76074;102447.7;;;;-72
2022/10/07 03:30:31;;;;;;;7.3;1.4;;;;;;;;;;;;;-73
2022/10/07 03:32:07;;;;;;;;;;;;;;;10.55;72.99707;102450.2;;;;-74
2022/10/07 03:37:07;;;;;;;;;;;;;;;10.52;73.69043;102441.7;;;;-75
2022/10/07 03:42:07;;;;;;;;;;;;;;;10.53;73.1709;102439.5;;;;-74
2022/10/07 03:47:07;;;;;;;;;;;;;;;10.49;73.53125;102427;;;;-75
2022/10/07 03:52:19;;;;;;;;;;;;;;;10.48;73.58301;102426;;;;-75
2022/10/07 03:57:48;;;;;;;;;;;;;;;10.49;73.80664;102425.7;;;;-75
2022/10/07 04:00:31;;;;;;;11.5;2;;;;;;;;;;;;;-74
2022/10/07 04:02:06;;;;;;;;;;;;;;;10.49;74.54004;102425.6;;;;-74
2022/10/07 04:07:10;;;;;;;;;;;;;;;10.49;74.25;102423.7;;;;-76
2022/10/07 04:12:06;;;;;;;;;;;;;;;10.48;73.90527;102421.3;;;;-75
2022/10/07 04:17:09;;;;;;;;;;;;;;;10.46;74.84375;102414.7;;;;-74
2022/10/07 04:22:07;;;;;;;;;;;;;;;10.45;74.74219;102414.4;;;;-72
2022/10/07 04:27:12;;;;;;;;;;;;;;;10.48;74.79102;102409.9;;;;-75
2022/10/07 04:30:33;;;;;;;9.7;2.1;;;;;;;;;;;;;-75
2022/10/07 04:32:06;;;;;;;;;;;;;;;10.48;74.87988;102405.8;;;;-73
2022/10/07 04:37:06;;;;;;;;;;;;;;;10.47;75.78906;102399.8;;;;-74
2022/10/07 04:42:07;;;;;;;;;;;;;;;10.47;74.71191;102402;;;;-75
2022/10/07 04:47:13;;;;;;;;;;;;;;;10.45;74.69629;102400.2;;;;-74
2022/10/07 04:52:07;;;;;;;;;;;;;;;10.46;74.94238;102396.4;;;;-74
2022/10/07 04:57:12;;;;;;;;;;;;;;;10.44;75.08398;102385.1;;;;-75
2022/10/07 05:00:32;;;;;;;8.5;1.8;;;;;;;;;;;;;-74
2022/10/07 05:02:08;;;;;;;;;;;;;;;10.41;75.49902;102377.4;;;;-75
2022/10/07 05:07:08;;;;;;;;;;;;;;;10.42;75.61328;102366.3;;;;-75
2022/10/07 05:12:07;;;;;;;;;;;;;;;10.41;75.85352;102371.7;;;;-74
2022/10/07 05:17:09;;;;;;;;;;;;;;;10.41;76.75;102370.6;;;;-74
2022/10/07 05:22:06;;;;;;;;;;;;;;;10.4;76.04004;102370.6;;;;-74
2022/10/07 05:27:06;;;;;;;;;;;;;;;10.4;76.6709;102363.1;;;;-75
2022/10/07 05:30:33;;;;;;;6.8;1.7;;;;;;;;;;;;;-76
2022/10/07 05:32:06;;;;;;;;;;;;;;;10.4;75.6748;102360.2;;;;-74
2022/10/07 05:37:07;;;;;;;;;;;;;;;10.38;76.59082;102360.2;;;;-75
2022/10/07 05:42:08;;;;;;;;;;;;;;;10.38;76.33594;102356.7;;;;-76
2022/10/07 05:47:06;;;;;;;;;;;;;;;10.42;76.77441;102353.6;;;;-75
2022/10/07 05:52:07;;;;;;;;;;;;;;;10.45;76.94629;102351.7;;;;-76
2022/10/07 05:57:08;;;;;;;;;;;;;;;10.5;77.00098;102344.8;;;;-76
2022/10/07 06:00:40;;;;;;;5.4;2;;;;;;;;;;;;;-75
2022/10/07 06:02:07;;;;;;;;;;;;;;;10.51;77.50977;102344.1;;;;-75
2022/10/07 06:07:09;;;;;;;;;;;;;;;10.5;77.03418;102334.3;;;;-75
2022/10/07 06:17:07;;;;;;;;;;;;;;;10.51;77.24414;102341.4;;;;-75
2022/10/07 06:22:06;;;;;;;;;;;;;;;10.52;77.46875;102342.2;;;;-73
2022/10/07 06:27:07;;;;;;;;;;;;;;;10.53;77.07227;102342;;;;-76
2022/10/07 06:30:35;;;;;;;8;2.3;;;;;;;;;;;;;-75
2022/10/07 06:32:06;;;;;;;;;;;;;;;10.57;77.64258;102347.7;;;;-75
2022/10/07 06:37:07;;;;;;;;;;;;;;;10.6;77.49414;102350.8;;;;-75
2022/10/07 06:42:06;;;;;;;;;;;;;;;10.64;77.24414;102348.6;;;;-75
2022/10/07 06:47:08;;;;;;;;;;;;;;;10.69;77.27637;102347.8;;;;-76
2022/10/07 06:52:06;;;;;;;;;;;;;;;10.71;77.30176;102349.3;;;;-75
2022/10/07 06:57:16;;;;;;;;;;;;;;;10.77;77.49023;102353.2;;;;-76
2022/10/07 07:00:42;;;;;;;9.4;2.5;;;;;;;;;;;;;-75
2022/10/07 07:02:07;;;;;;;;;;;;;;;10.9;77.60156;102345.4;;;;-75
2022/10/07 07:07:06;;;;;;;;;;;;;;;11.01;76.71387;102349.6;;;;-75
2022/10/07 07:12:07;;;;;;;;;;;;;;;11.16;75.97363;102342.5;;;;-74
2022/10/07 07:17:08;;;;;;;;;;;;;;;11.32;76.51074;102347.3;;;;-75
2022/10/07 07:22:07;;;;;;;;;;;;;;;11.49;77.37402;102343.5;;;;-75
2022/10/07 07:27:06;;;;;;;;;;;;;;;11.65;76.90234;102342.2;;;;-75
2022/10/07 07:30:37;;;;;;;11.5;2.5;;;;;;;;;;;;;-76
2022/10/07 07:32:07;;;;;;;;;;;;;;;11.8;77.12793;102338.6;;;;-75
2022/10/07 07:37:06;;;;;;;;;;;;;;;11.99;76.95215;102339.2;;;;-74
2022/10/07 07:42:07;;;;;;;;;;;;;;;12.26;77.73047;102328.6;;;;-75
2022/10/07 07:47:07;;;;;;;;;;;;;;;12.48;76.76855;102320.7;;;;-74
2022/10/07 07:52:09;;;;;;;;;;;;;;;12.58;76.24023;102319;;;;-75
2022/10/07 07:57:07;;;;;;;;;;;;;;;12.63;75.04785;102318;;;;-75
2022/10/07 08:00:37;;;;;;;13.7;2.1;;;;;;;;;;;;;-75
2022/10/07 08:02:07;;;;;;;;;;;;;;;12.69;75.42773;102325.7;;;;-74
2022/10/07 08:07:06;;;;;;;;;;;;;;;12.73;75.53418;102327.1;;;;-76
2022/10/07 08:12:07;;;;;;;;;;;;;;;12.79;75.82031;102317.6;;;;-75
2022/10/07 08:17:07;;;;;;;;;;;;;;;12.83;75.52734;102309.4;;;;-76
2022/10/07 08:22:07;;;;;;;;;;;;;;;12.87;75.67969;102305.5;;;;-77
2022/10/07 08:27:06;;;;;;;;;;;;;;;12.97;75.34082;102311.1;;;;-75
2022/10/07 08:30:39;;;;;;;11;2.4;;;;;;;;;;;;;-75
2022/10/07 08:32:06;;;;;;;;;;;;;;;13.13;74.99902;102306.6;;;;-75
2022/10/07 08:37:07;;;;;;;;;;;;;;;13.27;74.91309;102315.7;;;;-76
2022/10/07 08:42:12;;;;;;;;;;;;;;;13.36;75.12793;102302.8;;;;-76
2022/10/07 08:47:13;;;;;;;;;;;;;;;13.47;74.41113;102294;;;;-75
2022/10/07 08:52:17;;;;;;;;;;;;;;;13.71;74.09375;102289;;;;-75
2022/10/07 08:57:11;;;;;;;;;;;;;;;13.86;73.72852;102294.4;;;;-75
2022/10/07 09:00:43;;;;;;;9.3;2.3;;;;;;;;;;;;;-76
2022/10/07 09:02:19;;;;;;;;;;;;;;;13.91;73.7832;102289.2;;;;-75
2022/10/07 09:07:11;;;;;;;;;;;;;;;14.01;73.3623;102278.5;;;;-74
2022/10/07 09:12:08;;;;;;;;;;;;;;;14.05;73.79492;102281.9;;;;-76
2022/10/07 09:17:09;;;;;;;;;;;;;;;14.11;73.55762;102274.5;;;;-75
2022/10/07 09:22:12;;;;;;;;;;;;;;;14.15;73.46289;102262.6;;;;-74
2022/10/07 09:27:14;;;;;;;;;;;;;;;14.31;73.16602;102254.7;;;;-74
2022/10/07 09:30:41;;;;;;;11.3;2.3;;;;;;;;;;;;;-76
2022/10/07 09:32:08;;;;;;;;;;;;;;;14.6;72.46289;102252.7;;;;-74
2022/10/07 09:37:20;;;;;;;;;;;;;;;15;71.25293;102246.5;;;;-75
2022/10/07 09:42:08;;;;;;;;;;;;;;;15.37;70.51563;102244.1;;;;-75
2022/10/07 09:47:15;;;;;;;;;;;;;;;15.78;69.63672;102239.6;;;;-76
2022/10/07 09:52:07;;;;;;;;;;;;;;;15.77;68.97266;102233.6;;;;-75
2022/10/07 09:57:07;;;;;;;;;;;;;;;15.65;69.41504;102238.3;;;;-75
2022/10/07 10:00:48;;;;;;;11.7;2.1;;;;;;;;;;;;;-74
2022/10/07 10:02:17;;;;;;;;;;;;;;;15.59;69.43848;102245.3;;;;-75
2022/10/07 10:07:09;;;;;;;;;;;;;;;15.51;69.61621;102238.1;;;;-75
2022/10/07 10:12:11;;;;;;;;;;;;;;;15.49;70.37695;102233.1;;;;-74
2022/10/07 10:17:21;;;;;;;;;;;;;;;15.46;70.02441;102227.7;;;;-76
2022/10/07 10:22:06;;;;;;;;;;;;;;;15.39;70.29395;102228.4;;;;-74
2022/10/07 10:27:09;;;;;;;;;;;;;;;15.27;70.88086;102221.1;;;;-74
2022/10/07 10:30:51;;;;;;;11.1;2.1;;;;;;;;;;;;;-75
2022/10/07 10:32:19;;;;;;;;;;;;;;;15.3;71.09961;102216.3;;;;-75
2022/10/07 10:37:10;;;;;;;;;;;;;;;15.29;71.23145;102208;;;;-75
2022/10/07 10:42:10;;;;;;;;;;;;;;;15.24;71.16797;102200.1;;;;-75
2022/10/07 10:47:13;;;;;;;;;;;;;;;15.25;70.85547;102189.6;;;;-76
2022/10/07 10:52:17;;;;;;;;;;;;;;;15.32;71.12305;102178.1;;;;-77
2022/10/07 10:57:13;;;;;;;;;;;;;;;15.5;70.98535;102169.6;;;;-74
2022/10/07 11:00:53;;;;;;;11;1.9;;;;;;;;;;;;;-74
2022/10/07 11:02:16;;;;;;;;;;;;;;;15.65;70.36914;102169.9;;;;-75
2022/10/07 11:07:09;;;;;;;;;;;;;;;15.82;69.83496;102161.8;;;;-75
2022/10/07 11:12:08;;;;;;;;;;;;;;;15.92;69.44531;102155.7;;;;-73
2022/10/07 11:17:11;;;;;;;;;;;;;;;16.06;69.1084;102147.4;;;;-74
2022/10/07 11:22:07;;;;;;;;;;;;;;;16.14;69.14355;102137.7;;;;-74
2022/10/07 11:27:14;;;;;;;;;;;;;;;16.26;68.47559;102136.1;;;;-75
2022/10/07 11:30:52;;;;;;;10.7;2.3;;;;;;;;;;;;;-74
2022/10/07 11:32:10;;;;;;;;;;;;;;;16.27;68.43262;102128.9;;;;-76
2022/10/07 11:37:12;;;;;;;;;;;;;;;16.25;68.19336;102116.9;;;;-73
2022/10/07 11:42:11;;;;;;;;;;;;;;;16.28;68.31152;102113.8;;;;-73
2022/10/07 11:47:09;;;;;;;;;;;;;;;16.44;68.05371;102113.5;;;;-75
2022/10/07 11:52:09;;;;;;;;;;;;;;;16.69;67.19141;102101.8;;;;-76
2022/10/07 11:57:06;;;;;;;;;;;;;;;16.92;67.30566;102095.8;;;;-75
2022/10/07 12:00:51;;;;;;;11;1.7;;;;;;;;;;;;;-75
2022/10/07 12:02:07;;;;;;;;;;;;;;;16.93;66.15625;102080;;;;-75
2022/10/07 12:07:18;;;;;;;;;;;;;;;16.98;66.08496;102079.1;;;;-75
2022/10/07 12:12:06;;;;;;;;;;;;;;;16.99;66.1084;102064;;;;-76
2022/10/07 12:17:18;;;;;;;;;;;;;;;17.09;65.97656;102061;;;;-75
2022/10/07 12:22:26;;;;;;;;;;;;;;;17.16;66.02148;102047.8;;;;-75
2022/10/07 12:27:16;;;;;;;;;;;;;;;17.18;66.2832;102039.2;;;;-75
2022/10/07 12:30:58;;;;;;;10.8;2;;;;;;;;;;;;;-74
2022/10/07 12:32:06;;;;;;;;;;;;;;;17.19;65.16797;102034.3;;;;-76
2022/10/07 12:37:17;;;;;;;;;;;;;;;17.28;65.45215;102030.9;;;;-70
2022/10/07 12:42:08;;;;;;;;;;;;;;;17.27;64.81836;102024.4;;;;-70
2022/10/07 12:47:13;;;;;;;;;;;;;;;17.29;65.02344;102012.2;;;;-71
2022/10/07 12:52:10;;;;;;;;;;;;;;;17.39;65.1084;102002;;;;-71
2022/10/07 12:57:13;;;;;;;;;;;;;;;17.49;64.61523;101992.3;;;;-71
2022/10/07 13:01:06;;;;;;;7.8;1.8;;;;;;;;;;;;;-72
2022/10/07 13:02:33;;;;;;;;;;;;;;;17.42;65.63086;101985.3;;;;-72
2022/10/07 13:07:18;;;;;;;;;;;;;;;17.42;64.89746;101986;;;;-70
2022/10/07 13:12:15;;;;;;;;;;;;;;;17.42;65.04492;101980.6;;;;-72
2022/10/07 13:17:15;;;;;;;;;;;;;;;17.43;65.21582;101970;;;;-72
2022/10/07 13:22:10;;;;;;;;;;;;;;;17.45;64.97949;101965.8;;;;-72
2022/10/07 13:27:10;;;;;;;;;;;;;;;17.39;65.20898;101964.9;;;;-70
2022/10/07 13:30:56;;;;;;;8.4;1.4;;;;;;;;;;;;;-72
2022/10/07 13:32:16;;;;;;;;;;;;;;;17.4;64.41016;101967.2;;;;-71
2022/10/07 13:37:23;;;;;;;;;;;;;;;17.4;64.23926;101964;;;;-71
2022/10/07 13:42:14;;;;;;;;;;;;;;;17.45;64.31348;101960.8;;;;-71
2022/10/07 13:47:10;;;;;;;;;;;;;;;17.49;64.47852;101957.9;;;;-72
2022/10/07 13:52:09;;;;;;;;;;;;;;;17.47;64.18164;101956.9;;;;-70
2022/10/07 13:57:10;;;;;;;;;;;;;;;17.45;64.43848;101948;;;;-70
2022/10/07 14:00:58;;;;;;;6.5;1.5;;;;;;;;;;;;;-77
2022/10/07 14:02:07;;;;;;;;;;;;;;;17.37;63.625;101936.9;;;;-75
2022/10/07 14:07:11;;;;;;;;;;;;;;;17.29;64.58301;101935.2;;;;-76
2022/10/07 14:12:08;;;;;;;;;;;;;;;17.33;64.61328;101928.1;;;;-77
2022/10/07 14:17:10;;;;;;;;;;;;;;;17.32;64.3418;101917.8;;;;-72
2022/10/07 14:22:18;;;;;;;;;;;;;;;17.26;64.28711;101906.6;;;;-71
2022/10/07 14:27:08;;;;;;;;;;;;;;;17.18;64.41211;101901.3;;;;-71
2022/10/07 14:37:16;;;;;;;;;;;;;;;17.13;64.75391;101894.1;;;;-70
2022/10/07 14:42:07;;;;;;;;;;;;;;;17.14;64.8457;101889.5;;;;-72
2022/10/07 14:47:15;;;;;;;;;;;;;;;17;64.59961;101880.3;;;;-70
2022/10/07 14:52:07;;;;;;;;;;;;;;;16.96;64.7959;101882.6;;;;-74
2022/10/07 14:57:06;;;;;;;;;;;;;;;16.82;64.95508;101866.7;;;;-74
2022/10/07 15:01:03;;;;;;;8.4;1.5;;;;;;;;;;;;;-72
2022/10/07 15:02:06;;;;;;;;;;;;;;;16.71;65.24512;101868;;;;-74
2022/10/07 15:07:19;;;;;;;;;;;;;;;16.63;65.14258;101867.8;;;;-74
2022/10/07 15:12:06;;;;;;;;;;;;;;;16.61;65.44434;101861.6;;;;-74
2022/10/07 15:17:09;;;;;;;;;;;;;;;16.55;65.43457;101851;;;;-73
2022/10/07 15:22:06;;;;;;;;;;;;;;;16.51;65.44043;101846;;;;-75
2022/10/07 15:27:09;;;;;;;;;;;;;;;16.47;65.33105;101835.6;;;;-73
2022/10/07 15:31:11;;;;;;;8.5;1.7;;;;;;;;;;;;;-76
2022/10/07 15:32:06;;;;;;;;;;;;;;;16.47;65.23145;101821.9;;;;-74
2022/10/07 15:37:15;;;;;;;;;;;;;;;16.5;65.36035;101817.8;;;;-75
2022/10/07 15:42:11;;;;;;;;;;;;;;;16.53;65.11621;101811.2;;;;-74
2022/10/07 15:47:12;;;;;;;;;;;;;;;16.5;65.18066;101807;;;;-74
2022/10/07 15:52:07;;;;;;;;;;;;;;;16.51;65.04688;101801.5;;;;-75
2022/10/07 15:57:10;;;;;;;;;;;;;;;16.47;65.06055;101798.3;;;;-75
2022/10/07 16:01:11;;;;;;;7.4;1.4;;;;;;;;;;;;;-75
2022/10/07 16:02:07;;;;;;;;;;;;;;;16.42;64.99805;101793.8;;;;-75
2022/10/07 16:07:10;;;;;;;;;;;;;;;16.38;65.19629;101794.2;;;;-75
2022/10/07 16:12:07;;;;;;;;;;;;;;;16.37;65.44141;101789.6;;;;-76
2022/10/07 16:17:07;;;;;;;;;;;;;;;16.35;65.43945;101788.3;;;;-76
2022/10/07 16:22:08;;;;;;;;;;;;;;;16.32;65.64941;101791.6;;;;-76
2022/10/07 16:27:06;;;;;;;;;;;;;;;16.28;65.76758;101790.3;;;;-76
2022/10/07 16:31:08;;;;;;;8.2;1.7;;;;;;;;;;;;;-76
2022/10/07 16:32:09;;;;;;;;;;;;;;;16.23;65.83789;101787.2;;;;-76
2022/10/07 16:37:07;;;;;;;;;;;;;;;16.18;65.71875;101785.4;;;;-75
2022/10/07 16:42:07;;;;;;;;;;;;;;;16.08;66.06445;101787.2;;;;-75
2022/10/07 16:47:09;;;;;;;;;;;;;;;16.02;65.97461;101776.5;;;;-77
2022/10/07 16:52:09;;;;;;;;;;;;;;;15.97;65.97852;101774.3;;;;-72
2022/10/07 16:57:08;;;;;;;;;;;;;;;15.88;66.33789;101764.9;;;;-72
2022/10/07 17:01:12;;;;;;;6.4;1.6;;;;;;;;;;;;;-71
2022/10/07 17:02:11;;;;;;;;;;;;;;;15.75;66.02539;101766.5;;;;-74
2022/10/07 17:07:06;;;;;;;;;;;;;;;15.66;66.20215;101765;;;;-72
2022/10/07 17:12:07;;;;;;;;;;;;;;;15.58;66.12305;101766.6;;;;-70
2022/10/07 17:17:07;;;;;;;;;;;;;;;15.46;66.18359;101766.4;;;;-75
2022/10/07 17:22:29;;;;;;;;;;;;;;;15.4;66.27539;101762.2;;;;-75
2022/10/07 17:27:07;;;;;;;;;;;;;;;15.31;66.49902;101759.9;;;;-75
2022/10/07 17:31:13;;;;;;;6.9;1.6;;;;;;;;;;;;;-77
2022/10/07 17:32:10;;;;;;;;;;;;;;;15.25;66.69141;101758.3;;;;-75
2022/10/07 17:37:07;;;;;;;;;;;;;;;15.19;66.72852;101757.4;;;;-76
2022/10/07 17:42:06;;;;;;;;;;;;;;;15.19;66.59375;101756.8;;;;-77
2022/10/07 17:47:06;;;;;;;;;;;;;;;15.15;66.51953;101752.6;;;;-75
2022/10/07 17:52:06;;;;;;;;;;;;;;;15.08;66.74414;101751;;;;-77
2022/10/07 17:57:06;;;;;;;;;;;;;;;15.05;66.81934;101750;;;;-75
2022/10/07 18:01:14;;;;;;;9.6;1.6;;;;;;;;;;;;;-75
2022/10/07 18:02:06;;;;;;;;;;;;;;;14.99;66.58594;101751.6;;;;-75
2022/10/07 18:07:11;;;;;;;;;;;;;;;14.94;66.71191;101748.4;;;;-78
2022/10/07 18:17:07;;;;;;;;;;;;;;;14.83;66.86328;101743.2;;;;-76
2022/10/07 18:22:15;;;;;;;;;;;;;;;14.74;67.09668;101734.3;;;;-76
2022/10/07 18:27:06;;;;;;;;;;;;;;;14.68;67.00879;101732.2;;;;-76
2022/10/07 18:31:15;;;;;;;6.8;1.3;;;;;;;;;;;;;-74
2022/10/07 18:32:07;;;;;;;;;;;;;;;14.62;66.91016;101729.3;;;;-75
2022/10/07 18:37:06;;;;;;;;;;;;;;;14.52;66.97363;101724.4;;;;-75
2022/10/07 18:42:11;;;;;;;;;;;;;;;14.41;67.47266;101715.6;;;;-75
2022/10/07 18:47:07;;;;;;;;;;;;;;;14.35;67.65332;101710.9;;;;-75
2022/10/07 18:52:06;;;;;;;;;;;;;;;14.28;67.4082;101712.1;;;;-74
2022/10/07 18:57:09;;;;;;;;;;;;;;;14.19;67.49512;101711.5;;;;-75
2022/10/07 19:01:18;;;;;;;5.8;1.3;;;;;;;;;;;;;-76
2022/10/07 19:02:10;;;;;;;;;;;;;;;14.13;67.55176;101707.4;;;;-75
2022/10/07 19:07:08;;;;;;;;;;;;;;;14.03;67.75;101705.4;;;;-74
2022/10/07 19:13:46;;;;;;;;;;;;;;;13.99;68.46094;101699.9;;;;-74
2022/10/07 19:17:06;;;;;;;;;;;;;;;13.94;68.36426;101697.3;;;;-75
2022/10/07 19:22:07;;;;;;;;;;;;;;;13.88;68.73438;101697.2;;;;-77
2022/10/07 19:27:07;;;;;;;;;;;;;;;13.82;68.63574;101698.5;;;;-75
2022/10/07 19:31:21;;;;;;;6.8;1.8;;;;;;;;;;;;;-75
2022/10/07 19:32:06;;;;;;;;;;;;;;;13.8;68.70898;101693.8;;;;-75
2022/10/07 19:37:15;;;;;;;;;;;;;;;13.78;69.92578;101688.7;;;;-74
2022/10/07 19:42:06;;;;;;;;;;;;;;;13.74;69.71973;101681.5;;;;-75
2022/10/07 19:47:06;;;;;;;;;;;;;;;13.72;69.74902;101679.4;;;;-75
2022/10/07 19:52:06;;;;;;;;;;;;;;;13.66;70.10938;101672.5;;;;-74
2022/10/07 19:57:06;;;;;;;;;;;;;;;13.62;69.52051;101673.7;;;;-76
2022/10/07 20:01:20;;;;;;;5.6;1.6;;;;;;;;;;;;;-75
2022/10/07 20:02:07;;;;;;;;;;;;;;;13.57;69.78223;101666.8;;;;-75
2022/10/07 20:07:06;;;;;;;;;;;;;;;13.55;69.76758;101670.2;;;;-75
2022/10/07 20:12:06;;;;;;;;;;;;;;;13.53;70.1084;101665.4;;;;-75
2022/10/07 20:17:09;;;;;;;;;;;;;;;13.57;70.20508;101660.4;;;;-76
2022/10/07 20:22:06;;;;;;;;;;;;;;;13.63;70.80762;101657.1;;;;-75
2022/10/07 20:27:09;;;;;;;;;;;;;;;13.67;70.53418;101647;;;;-75
2022/10/07 20:31:21;;;;;;;5.8;1.5;;;;;;;;;;;;;-75
2022/10/07 20:32:06;;;;;;;;;;;;;;;13.7;70.64063;101648.2;;;;-75
2022/10/07 20:37:08;;;;;;;;;;;;;;;13.73;70.66699;101646.3;;;;-76
2022/10/07 20:47:06;;;;;;;;;;;;;;;13.76;70.63965;101649.9;;;;-75
2022/10/07 20:52:08;;;;;;;;;;;;;;;13.77;70.79785;101645.3;;;;-75
2022/10/07 20:57:06;;;;;;;;;;;;;;;13.77;70.41699;101646.8;;;;-74
2022/10/07 21:01:21;;;;;;;7.9;1.7;;;;;;;;;;;;;-75
2022/10/07 21:02:06;;;;;;;;;;;;;;;13.78;70.8418;101639.7;;;;-75
2022/10/07 21:07:07;;;;;;;;;;;;;;;13.79;70.74414;101637.7;;;;-76
2022/10/07 21:12:06;;;;;;;;;;;;;;;13.79;70.78906;101633.3;;;;-75
2022/10/07 21:17:07;;;;;;;;;;;;;;;13.79;70.6084;101625.9;;;;-75
2022/10/07 21:22:07;;;;;;;;;;;;;;;13.79;71.03516;101618.2;;;;-75
2022/10/07 21:27:07;;;;;;;;;;;;;;;13.76;70.99707;101615.2;;;;-75
2022/10/07 21:31:24;;;;;;;8.5;1.9;;;;;;;;;;;;;-75
2022/10/07 21:32:06;;;;;;;;;;;;;;;13.76;71.39941;101598.8;;;;-76
2022/10/07 21:37:06;;;;;;;;;;;;;;;13.74;71.16016;101591.3;;;;-75
2022/10/07 21:42:06;;;;;;;;;;;;;;;13.74;71.86426;101586.3;;;;-74
2022/10/07 21:47:08;;;;;;;;;;;;;;;13.74;71.75391;101574.1;;;;-74
2022/10/07 21:52:06;;;;;;;;;;;;;;;13.74;72.04297;101582.5;;;;-75
2022/10/07 21:57:06;;;;;;;;;;;;;;;13.72;71.44824;101580.1;;;;-75
2022/10/07 22:01:24;;;;;;;11.4;1.9;;;;;;;;;;;;;-75
2022/10/07 22:02:07;;;;;;;;;;;;;;;13.71;71.62402;101582.5;;;;-75
2022/10/07 22:12:07;;;;;;;;;;;;;;;13.72;72.88965;101579.4;;;;-75
2022/10/07 22:17:06;;;;;;;;;;;;;;;13.72;73.58203;101584.9;;;;-74
2022/10/07 22:22:07;;;;;;;;;;;;;;;13.69;72.92969;101588.3;;;;-76
2022/10/07 22:27:06;;;;;;;;;;;;;;;13.7;72.58301;101600.3;;;;-75
2022/10/07 22:31:25;;;;;;;9.4;1.9;;;;;;;;;;;;;-74
2022/10/07 22:32:06;;;;;;;;;;;;;;;13.66;73.0459;101608.3;;;;-74
2022/10/07 22:37:07;;;;;;;;;;;;;;;13.61;73.44043;101609.4;;;;-74
2022/10/07 22:42:06;;;;;;;;;;;;;;;13.55;73.95605;101609.2;;;;-74
2022/10/07 22:47:06;;;;;;;;;;;;;;;13.55;73.45215;101620.2;;;;-75
2022/10/07 22:52:10;;;;;;;;;;;;;;;13.55;73.37402;101619;;;;-74
2022/10/07 22:57:07;;;;;;;;;;;;;;;13.54;73.41895;101613.6;;;;-75
2022/10/07 23:01:27;;;;;;;7.9;1.6;;;;;;;;;;;;;-74
2022/10/07 23:02:08;;;;;;;;;;;;;;;13.55;73.71094;101616.5;;;;-73
2022/10/07 23:07:06;;;;;;;;;;;;;;;13.51;74.23926;101622.5;;;;-75
2022/10/07 23:12:08;;;;;;;;;;;;;;;13.44;74.2168;101613.1;;;;-75
2022/10/07 23:17:06;;;;;;;;;;;;;;;13.41;74.07715;101605.8;;;;-76
2022/10/07 23:22:08;;;;;;;;;;;;;;;13.39;73.7373;101600.1;;;;-74
2022/10/07 23:27:07;;;;;;;;;;;;;;;13.36;74.2793;101599.7;;;;-75
2022/10/07 23:31:29;;;;;;;4.8;1.1;;;;;;;;;;;;;-75
2022/10/07 23:32:06;;;;;;;;;;;;;;;13.33;74.44434;101605.7;;;;-77
2022/10/07 23:37:06;;;;;;;;;;;;;;;13.32;73.86035;101600.6;;;;-76
2022/10/07 23:42:06;;;;;;;;;;;;;;;13.31;74.33887;101592.4;;;;-75
2022/10/07 23:47:07;;;;;;;;;;;;;;;13.28;74.38965;101597.1;;;;-75
2022/10/07 23:52:06;;;;;;;;;;;;;;;13.28;75.07031;101598.5;;;;-76
2022/10/07 23:57:06;;;;;;;;;;;;;;;13.27;74.92383;101593.2;;;;-75
